sensor_id;sensor_type;location;lat;lon;timestamp;P1;durP1;ratioP1;P2;durP2;ratioP2
21894;SDS011;11112;51.270;7.224;2023-07-20T00:01:06;8.15;;;3.70;;
21894;SDS011;11112;51.270;7.224;2023-07-20T00:03:34;7.63;;;3.92;;
21894;SDS011;11112;51.270;7.224;2023-07-20T00:06:03;7.10;;;3.95;;
21894;SDS011;11112;51.270;7.224;2023-07-20T00:08:30;8.68;;;4.55;;
21894;SDS011;11112;51.270;7.224;2023-07-20T00:10:58;7.82;;;4.72;;
21894;SDS011;11112;51.270;7.224;2023-07-20T00:13:28;8.07;;;4.45;;
21894;SDS011;11112;51.270;7.224;2023-07-20T00:15:55;10.05;;;5.30;;
21894;SDS011;11112;51.270;7.224;2023-07-20T00:18:23;7.82;;;5.38;;
21894;SDS011;11112;51.270;7.224;2023-07-20T00:20:50;10.25;;;5.43;;
21894;SDS011;11112;51.270;7.224;2023-07-20T00:23:19;10.25;;;5.50;;
21894;SDS011;11112;51.270;7.224;2023-07-20T00:25:48;6.78;;;5.13;;
21894;SDS011;11112;51.270;7.224;2023-07-20T00:28:15;9.50;;;5.28;;
21894;SDS011;11112;51.270;7.224;2023-07-20T00:30:42;11.00;;;5.90;;
21894;SDS011;11112;51.270;7.224;2023-07-20T00:33:10;8.88;;;5.22;;
21894;SDS011;11112;51.270;7.224;2023-07-20T00:35:39;10.75;;;5.32;;
21894;SDS011;11112;51.270;7.224;2023-07-20T00:38:06;10.05;;;5.82;;
21894;SDS011;11112;51.270;7.224;2023-07-20T00:40:38;9.77;;;5.65;;
21894;SDS011;11112;51.270;7.224;2023-07-20T00:43:07;8.48;;;5.45;;
21894;SDS011;11112;51.270;7.224;2023-07-20T00:45:34;9.32;;;5.60;;
21894;SDS011;11112;51.270;7.224;2023-07-20T00:48:04;9.68;;;5.68;;
21894;SDS011;11112;51.270;7.224;2023-07-20T00:50:34;9.93;;;5.57;;
21894;SDS011;11112;51.270;7.224;2023-07-20T00:53:01;9.27;;;6.10;;
21894;SDS011;11112;51.270;7.224;2023-07-20T00:55:33;11.82;;;5.53;;
21894;SDS011;11112;51.270;7.224;2023-07-20T00:58:03;9.98;;;5.97;;
21894;SDS011;11112;51.270;7.224;2023-07-20T01:00:32;9.10;;;5.70;;
21894;SDS011;11112;51.270;7.224;2023-07-20T01:02:59;11.52;;;5.93;;
21894;SDS011;11112;51.270;7.224;2023-07-20T01:05:28;8.98;;;5.50;;
21894;SDS011;11112;51.270;7.224;2023-07-20T01:08:07;9.00;;;5.70;;
21894;SDS011;11112;51.270;7.224;2023-07-20T01:10:46;11.05;;;5.60;;
21894;SDS011;11112;51.270;7.224;2023-07-20T01:13:23;9.85;;;6.00;;
21894;SDS011;11112;51.270;7.224;2023-07-20T01:15:56;10.63;;;5.88;;
21894;SDS011;11112;51.270;7.224;2023-07-20T01:18:24;8.88;;;6.00;;
21894;SDS011;11112;51.270;7.224;2023-07-20T01:20:53;9.18;;;5.85;;
21894;SDS011;11112;51.270;7.224;2023-07-20T01:23:41;10.02;;;5.95;;
21894;SDS011;11112;51.270;7.224;2023-07-20T01:26:34;11.25;;;5.97;;
21894;SDS011;11112;51.270;7.224;2023-07-20T01:32:17;8.48;;;5.47;;
21894;SDS011;11112;51.270;7.224;2023-07-20T01:34:49;10.80;;;6.03;;
21894;SDS011;11112;51.270;7.224;2023-07-20T01:37:20;9.18;;;5.70;;
21894;SDS011;11112;51.270;7.224;2023-07-20T01:39:51;8.00;;;5.80;;
21894;SDS011;11112;51.270;7.224;2023-07-20T01:42:20;8.40;;;5.65;;
21894;SDS011;11112;51.270;7.224;2023-07-20T01:44:50;10.63;;;6.03;;
21894;SDS011;11112;51.270;7.224;2023-07-20T01:47:22;7.60;;;5.57;;
21894;SDS011;11112;51.270;7.224;2023-07-20T01:49:50;8.25;;;5.68;;
21894;SDS011;11112;51.270;7.224;2023-07-20T01:52:17;10.73;;;5.65;;
21894;SDS011;11112;51.270;7.224;2023-07-20T01:54:44;8.55;;;5.55;;
21894;SDS011;11112;51.270;7.224;2023-07-20T01:57:11;9.63;;;5.93;;
21894;SDS011;11112;51.270;7.224;2023-07-20T01:59:39;8.85;;;5.13;;
21894;SDS011;11112;51.270;7.224;2023-07-20T02:02:07;7.95;;;5.50;;
21894;SDS011;11112;51.270;7.224;2023-07-20T02:04:36;8.40;;;5.00;;
21894;SDS011;11112;51.270;7.224;2023-07-20T02:07:05;8.25;;;4.78;;
21894;SDS011;11112;51.270;7.224;2023-07-20T02:09:32;8.27;;;4.78;;
21894;SDS011;11112;51.270;7.224;2023-07-20T02:12:00;8.48;;;4.45;;
21894;SDS011;11112;51.270;7.224;2023-07-20T02:14:27;8.07;;;4.80;;
21894;SDS011;11112;51.270;7.224;2023-07-20T02:16:56;8.68;;;4.72;;
21894;SDS011;11112;51.270;7.224;2023-07-20T02:19:25;7.45;;;4.40;;
21894;SDS011;11112;51.270;7.224;2023-07-20T02:21:54;7.10;;;4.55;;
21894;SDS011;11112;51.270;7.224;2023-07-20T02:24:22;7.93;;;4.40;;
21894;SDS011;11112;51.270;7.224;2023-07-20T02:26:52;7.20;;;4.35;;
21894;SDS011;11112;51.270;7.224;2023-07-20T02:29:19;8.32;;;4.95;;
21894;SDS011;11112;51.270;7.224;2023-07-20T02:31:46;8.40;;;4.78;;
21894;SDS011;11112;51.270;7.224;2023-07-20T02:34:13;8.15;;;4.82;;
21894;SDS011;11112;51.270;7.224;2023-07-20T02:36:44;7.68;;;4.82;;
21894;SDS011;11112;51.270;7.224;2023-07-20T02:39:13;7.30;;;5.03;;
21894;SDS011;11112;51.270;7.224;2023-07-20T02:41:41;7.57;;;4.45;;
21894;SDS011;11112;51.270;7.224;2023-07-20T02:44:09;6.97;;;4.55;;
21894;SDS011;11112;51.270;7.224;2023-07-20T02:46:36;7.53;;;4.53;;
21894;SDS011;11112;51.270;7.224;2023-07-20T02:49:03;8.90;;;4.35;;
21894;SDS011;11112;51.270;7.224;2023-07-20T02:51:30;9.65;;;4.97;;
21894;SDS011;11112;51.270;7.224;2023-07-20T02:53:59;10.43;;;4.85;;
21894;SDS011;11112;51.270;7.224;2023-07-20T02:56:30;6.18;;;4.45;;
21894;SDS011;11112;51.270;7.224;2023-07-20T02:58:57;7.63;;;4.97;;
21894;SDS011;11112;51.270;7.224;2023-07-20T03:01:24;8.25;;;5.00;;
21894;SDS011;11112;51.270;7.224;2023-07-20T03:03:54;8.95;;;5.10;;
21894;SDS011;11112;51.270;7.224;2023-07-20T03:06:21;7.82;;;4.88;;
21894;SDS011;11112;51.270;7.224;2023-07-20T03:08:49;7.10;;;4.38;;
21894;SDS011;11112;51.270;7.224;2023-07-20T03:11:17;7.80;;;4.82;;
21894;SDS011;11112;51.270;7.224;2023-07-20T03:13:47;9.07;;;4.80;;
21894;SDS011;11112;51.270;7.224;2023-07-20T03:16:18;7.05;;;4.65;;
21894;SDS011;11112;51.270;7.224;2023-07-20T03:18:46;10.50;;;4.63;;
21894;SDS011;11112;51.270;7.224;2023-07-20T03:21:14;8.55;;;4.25;;
21894;SDS011;11112;51.270;7.224;2023-07-20T03:23:42;8.00;;;4.30;;
21894;SDS011;11112;51.270;7.224;2023-07-20T03:26:09;8.65;;;4.60;;
21894;SDS011;11112;51.270;7.224;2023-07-20T03:28:38;9.85;;;4.30;;
21894;SDS011;11112;51.270;7.224;2023-07-20T03:31:07;8.55;;;4.18;;
21894;SDS011;11112;51.270;7.224;2023-07-20T03:33:34;9.07;;;4.35;;
21894;SDS011;11112;51.270;7.224;2023-07-20T03:36:04;6.70;;;4.32;;
21894;SDS011;11112;51.270;7.224;2023-07-20T03:38:31;9.43;;;4.40;;
21894;SDS011;11112;51.270;7.224;2023-07-20T03:40:59;8.32;;;4.30;;
21894;SDS011;11112;51.270;7.224;2023-07-20T03:43:27;9.05;;;4.20;;
21894;SDS011;11112;51.270;7.224;2023-07-20T03:45:55;6.88;;;4.28;;
21894;SDS011;11112;51.270;7.224;2023-07-20T03:48:26;8.60;;;4.95;;
21894;SDS011;11112;51.270;7.224;2023-07-20T03:50:53;9.80;;;4.85;;
21894;SDS011;11112;51.270;7.224;2023-07-20T03:53:21;9.02;;;5.03;;
21894;SDS011;11112;51.270;7.224;2023-07-20T03:55:49;7.43;;;4.78;;
21894;SDS011;11112;51.270;7.224;2023-07-20T03:58:18;7.05;;;4.50;;
21894;SDS011;11112;51.270;7.224;2023-07-20T04:00:49;8.35;;;4.78;;
21894;SDS011;11112;51.270;7.224;2023-07-20T04:03:19;9.50;;;5.07;;
21894;SDS011;11112;51.270;7.224;2023-07-20T04:05:49;8.90;;;4.78;;
21894;SDS011;11112;51.270;7.224;2023-07-20T04:08:18;13.13;;;5.60;;
21894;SDS011;11112;51.270;7.224;2023-07-20T04:10:47;12.52;;;5.93;;
21894;SDS011;11112;51.270;7.224;2023-07-20T04:13:14;12.95;;;5.93;;
21894;SDS011;11112;51.270;7.224;2023-07-20T04:15:41;11.27;;;5.78;;
21894;SDS011;11112;51.270;7.224;2023-07-20T04:18:09;9.73;;;6.00;;
21894;SDS011;11112;51.270;7.224;2023-07-20T04:20:36;8.85;;;5.70;;
21894;SDS011;11112;51.270;7.224;2023-07-20T04:23:05;10.88;;;6.40;;
21894;SDS011;11112;51.270;7.224;2023-07-20T04:25:32;11.57;;;6.20;;
21894;SDS011;11112;51.270;7.224;2023-07-20T04:28:04;11.25;;;7.13;;
21894;SDS011;11112;51.270;7.224;2023-07-20T04:30:34;10.43;;;7.07;;
21894;SDS011;11112;51.270;7.224;2023-07-20T04:33:03;8.40;;;5.95;;
21894;SDS011;11112;51.270;7.224;2023-07-20T04:35:46;12.65;;;6.40;;
21894;SDS011;11112;51.270;7.224;2023-07-20T04:38:19;13.13;;;7.60;;
21894;SDS011;11112;51.270;7.224;2023-07-20T04:40:47;13.23;;;7.93;;
21894;SDS011;11112;51.270;7.224;2023-07-20T04:43:16;13.75;;;8.40;;
21894;SDS011;11112;51.270;7.224;2023-07-20T04:45:44;14.65;;;8.68;;
21894;SDS011;11112;51.270;7.224;2023-07-20T04:48:13;14.32;;;9.13;;
21894;SDS011;11112;51.270;7.224;2023-07-20T04:50:42;14.65;;;8.80;;
21894;SDS011;11112;51.270;7.224;2023-07-20T04:53:12;12.45;;;8.52;;
21894;SDS011;11112;51.270;7.224;2023-07-20T04:55:46;11.73;;;8.65;;
21894;SDS011;11112;51.270;7.224;2023-07-20T04:58:16;14.07;;;9.13;;
21894;SDS011;11112;51.270;7.224;2023-07-20T05:00:44;13.40;;;9.32;;
21894;SDS011;11112;51.270;7.224;2023-07-20T05:03:13;13.88;;;9.20;;
21894;SDS011;11112;51.270;7.224;2023-07-20T05:05:41;14.13;;;9.32;;
21894;SDS011;11112;51.270;7.224;2023-07-20T05:08:08;14.48;;;9.40;;
21894;SDS011;11112;51.270;7.224;2023-07-20T05:10:35;16.55;;;9.98;;
21894;SDS011;11112;51.270;7.224;2023-07-20T05:13:06;15.75;;;10.02;;
21894;SDS011;11112;51.270;7.224;2023-07-20T05:15:33;18.73;;;10.80;;
21894;SDS011;11112;51.270;7.224;2023-07-20T05:18:03;18.50;;;11.45;;
21894;SDS011;11112;51.270;7.224;2023-07-20T05:20:31;17.98;;;11.10;;
21894;SDS011;11112;51.270;7.224;2023-07-20T05:23:01;15.60;;;11.57;;
21894;SDS011;11112;51.270;7.224;2023-07-20T05:25:34;17.35;;;12.20;;
21894;SDS011;11112;51.270;7.224;2023-07-20T05:28:02;17.42;;;11.27;;
21894;SDS011;11112;51.270;7.224;2023-07-20T05:30:31;16.58;;;12.15;;
21894;SDS011;11112;51.270;7.224;2023-07-20T05:32:58;18.63;;;12.65;;
21894;SDS011;11112;51.270;7.224;2023-07-20T05:35:29;19.63;;;13.13;;
21894;SDS011;11112;51.270;7.224;2023-07-20T05:37:57;19.05;;;13.25;;
21894;SDS011;11112;51.270;7.224;2023-07-20T05:40:25;20.73;;;14.70;;
21894;SDS011;11112;51.270;7.224;2023-07-20T05:42:52;19.17;;;14.65;;
21894;SDS011;11112;51.270;7.224;2023-07-20T05:45:21;20.00;;;15.05;;
21894;SDS011;11112;51.270;7.224;2023-07-20T05:47:51;18.45;;;15.20;;
21894;SDS011;11112;51.270;7.224;2023-07-20T05:50:18;19.88;;;15.43;;
21894;SDS011;11112;51.270;7.224;2023-07-20T05:52:48;19.00;;;15.07;;
21894;SDS011;11112;51.270;7.224;2023-07-20T05:55:15;21.65;;;16.15;;
21894;SDS011;11112;51.270;7.224;2023-07-20T05:57:42;21.77;;;17.10;;
21894;SDS011;11112;51.270;7.224;2023-07-20T06:00:10;22.27;;;16.33;;
21894;SDS011;11112;51.270;7.224;2023-07-20T06:02:38;22.02;;;18.05;;
21894;SDS011;11112;51.270;7.224;2023-07-20T06:05:09;23.85;;;19.50;;
21894;SDS011;11112;51.270;7.224;2023-07-20T06:07:36;26.23;;;20.20;;
21894;SDS011;11112;51.270;7.224;2023-07-20T06:10:05;24.13;;;20.40;;
21894;SDS011;11112;51.270;7.224;2023-07-20T06:12:33;22.75;;;18.77;;
21894;SDS011;11112;51.270;7.224;2023-07-20T06:15:01;21.63;;;18.80;;
21894;SDS011;11112;51.270;7.224;2023-07-20T06:17:32;22.60;;;19.48;;
21894;SDS011;11112;51.270;7.224;2023-07-20T06:20:00;22.70;;;19.38;;
21894;SDS011;11112;51.270;7.224;2023-07-20T06:22:30;24.48;;;19.30;;
21894;SDS011;11112;51.270;7.224;2023-07-20T06:24:57;20.95;;;18.73;;
21894;SDS011;11112;51.270;7.224;2023-07-20T06:27:24;22.02;;;19.25;;
21894;SDS011;11112;51.270;7.224;2023-07-20T06:29:53;23.98;;;19.42;;
21894;SDS011;11112;51.270;7.224;2023-07-20T06:32:21;23.05;;;20.05;;
21894;SDS011;11112;51.270;7.224;2023-07-20T06:34:48;22.63;;;16.38;;
21894;SDS011;11112;51.270;7.224;2023-07-20T06:37:15;18.75;;;16.50;;
21894;SDS011;11112;51.270;7.224;2023-07-20T06:39:46;18.92;;;15.65;;
21894;SDS011;11112;51.270;7.224;2023-07-20T06:42:14;17.05;;;14.23;;
21894;SDS011;11112;51.270;7.224;2023-07-20T06:44:44;15.13;;;13.20;;
21894;SDS011;11112;51.270;7.224;2023-07-20T06:47:12;12.65;;;10.45;;
21894;SDS011;11112;51.270;7.224;2023-07-20T06:49:39;11.23;;;9.40;;
21894;SDS011;11112;51.270;7.224;2023-07-20T06:52:06;14.18;;;9.25;;
21894;SDS011;11112;51.270;7.224;2023-07-20T06:54:34;10.10;;;8.90;;
21894;SDS011;11112;51.270;7.224;2023-07-20T06:57:04;10.45;;;7.95;;
21894;SDS011;11112;51.270;7.224;2023-07-20T06:59:32;11.02;;;9.07;;
21894;SDS011;11112;51.270;7.224;2023-07-20T07:01:59;12.70;;;10.07;;
21894;SDS011;11112;51.270;7.224;2023-07-20T07:04:26;11.38;;;10.10;;
21894;SDS011;11112;51.270;7.224;2023-07-20T07:06:55;10.65;;;9.57;;
21894;SDS011;11112;51.270;7.224;2023-07-20T07:09:22;11.27;;;10.15;;
21894;SDS011;11112;51.270;7.224;2023-07-20T07:11:49;11.25;;;10.00;;
21894;SDS011;11112;51.270;7.224;2023-07-20T07:14:20;11.13;;;9.80;;
21894;SDS011;11112;51.270;7.224;2023-07-20T07:16:47;11.63;;;8.73;;
21894;SDS011;11112;51.270;7.224;2023-07-20T07:19:16;9.25;;;7.65;;
21894;SDS011;11112;51.270;7.224;2023-07-20T07:21:44;7.82;;;7.00;;
21894;SDS011;11112;51.270;7.224;2023-07-20T07:24:14;7.72;;;6.88;;
21894;SDS011;11112;51.270;7.224;2023-07-20T07:26:41;7.63;;;6.93;;
21894;SDS011;11112;51.270;7.224;2023-07-20T07:29:08;6.85;;;6.10;;
21894;SDS011;11112;51.270;7.224;2023-07-20T07:31:39;6.80;;;5.90;;
21894;SDS011;11112;51.270;7.224;2023-07-20T07:34:07;7.50;;;5.43;;
21894;SDS011;11112;51.270;7.224;2023-07-20T07:36:34;6.18;;;5.57;;
21894;SDS011;11112;51.270;7.224;2023-07-20T07:39:04;6.40;;;5.80;;
21894;SDS011;11112;51.270;7.224;2023-07-20T07:41:31;5.85;;;5.10;;
21894;SDS011;11112;51.270;7.224;2023-07-20T07:43:58;5.68;;;5.18;;
21894;SDS011;11112;51.270;7.224;2023-07-20T07:46:26;5.80;;;4.90;;
21894;SDS011;11112;51.270;7.224;2023-07-20T07:48:54;5.28;;;4.65;;
21894;SDS011;11112;51.270;7.224;2023-07-20T07:51:21;5.65;;;4.28;;
21894;SDS011;11112;51.270;7.224;2023-07-20T07:53:49;5.00;;;3.88;;
21894;SDS011;11112;51.270;7.224;2023-07-20T07:56:16;4.28;;;3.53;;
21894;SDS011;11112;51.270;7.224;2023-07-20T07:58:47;3.85;;;3.10;;
21894;SDS011;11112;51.270;7.224;2023-07-20T08:01:16;4.10;;;3.00;;
21894;SDS011;11112;51.270;7.224;2023-07-20T08:03:45;4.68;;;3.20;;
21894;SDS011;11112;51.270;7.224;2023-07-20T08:06:14;3.92;;;3.33;;
21894;SDS011;11112;51.270;7.224;2023-07-20T08:08:41;4.38;;;3.40;;
21894;SDS011;11112;51.270;7.224;2023-07-20T08:11:09;3.63;;;3.13;;
21894;SDS011;11112;51.270;7.224;2023-07-20T08:13:38;4.60;;;2.85;;
21894;SDS011;11112;51.270;7.224;2023-07-20T08:16:05;3.78;;;3.10;;
21894;SDS011;11112;51.270;7.224;2023-07-20T08:18:33;2.83;;;2.38;;
21894;SDS011;11112;51.270;7.224;2023-07-20T08:21:02;3.95;;;2.85;;
21894;SDS011;11112;51.270;7.224;2023-07-20T08:23:31;4.88;;;3.33;;
21894;SDS011;11112;51.270;7.224;2023-07-20T08:25:58;3.83;;;2.75;;
21894;SDS011;11112;51.270;7.224;2023-07-20T08:28:26;3.22;;;1.48;;
21894;SDS011;11112;51.270;7.224;2023-07-20T08:30:54;2.10;;;1.60;;
21894;SDS011;11112;51.270;7.224;2023-07-20T08:33:21;2.80;;;2.10;;
21894;SDS011;11112;51.270;7.224;2023-07-20T08:35:49;2.65;;;2.30;;
21894;SDS011;11112;51.270;7.224;2023-07-20T08:38:16;3.25;;;2.70;;
21894;SDS011;11112;51.270;7.224;2023-07-20T08:40:46;3.45;;;2.58;;
21894;SDS011;11112;51.270;7.224;2023-07-20T08:43:14;3.03;;;2.53;;
21894;SDS011;11112;51.270;7.224;2023-07-20T08:45:44;3.50;;;2.75;;
21894;SDS011;11112;51.270;7.224;2023-07-20T08:48:12;2.60;;;2.17;;
21894;SDS011;11112;51.270;7.224;2023-07-20T08:50:40;2.38;;;2.15;;
21894;SDS011;11112;51.270;7.224;2023-07-20T08:53:09;3.63;;;2.45;;
21894;SDS011;11112;51.270;7.224;2023-07-20T08:55:38;2.72;;;2.25;;
21894;SDS011;11112;51.270;7.224;2023-07-20T08:58:08;2.20;;;1.70;;
21894;SDS011;11112;51.270;7.224;2023-07-20T09:00:38;2.30;;;2.10;;
21894;SDS011;11112;51.270;7.224;2023-07-20T09:03:06;3.70;;;3.30;;
21894;SDS011;11112;51.270;7.224;2023-07-20T09:05:35;4.30;;;3.35;;
21894;SDS011;11112;51.270;7.224;2023-07-20T09:08:04;3.88;;;3.40;;
21894;SDS011;11112;51.270;7.224;2023-07-20T09:10:31;3.95;;;2.92;;
21894;SDS011;11112;51.270;7.224;2023-07-20T09:13:00;3.30;;;2.80;;
21894;SDS011;11112;51.270;7.224;2023-07-20T09:15:29;2.97;;;2.67;;
21894;SDS011;11112;51.270;7.224;2023-07-20T09:17:58;3.10;;;2.80;;
21894;SDS011;11112;51.270;7.224;2023-07-20T09:20:31;2.90;;;2.50;;
21894;SDS011;11112;51.270;7.224;2023-07-20T09:22:59;1.90;;;1.70;;
21894;SDS011;11112;51.270;7.224;2023-07-20T09:25:31;2.30;;;2.03;;
21894;SDS011;11112;51.270;7.224;2023-07-20T09:28:01;3.60;;;2.67;;
21894;SDS011;11112;51.270;7.224;2023-07-20T09:30:31;2.90;;;2.30;;
21894;SDS011;11112;51.270;7.224;2023-07-20T09:32:59;2.97;;;2.15;;
21894;SDS011;11112;51.270;7.224;2023-07-20T09:35:27;2.65;;;1.90;;
21894;SDS011;11112;51.270;7.224;2023-07-20T09:37:58;2.58;;;1.90;;
21894;SDS011;11112;51.270;7.224;2023-07-20T09:40:27;2.42;;;2.05;;
21894;SDS011;11112;51.270;7.224;2023-07-20T09:42:55;3.13;;;2.25;;
21894;SDS011;11112;51.270;7.224;2023-07-20T09:45:29;3.00;;;2.70;;
21894;SDS011;11112;51.270;7.224;2023-07-20T09:48:04;3.35;;;3.05;;
21894;SDS011;11112;51.270;7.224;2023-07-20T09:53:00;3.55;;;2.88;;
21894;SDS011;11112;51.270;7.224;2023-07-20T09:55:29;3.38;;;2.20;;
21894;SDS011;11112;51.270;7.224;2023-07-20T09:57:58;2.90;;;2.10;;
21894;SDS011;11112;51.270;7.224;2023-07-20T10:00:27;2.13;;;1.90;;
21894;SDS011;11112;51.270;7.224;2023-07-20T10:02:56;3.95;;;2.05;;
21894;SDS011;11112;51.270;7.224;2023-07-20T10:05:27;2.23;;;1.80;;
21894;SDS011;11112;51.270;7.224;2023-07-20T10:08:00;1.95;;;1.20;;
21894;SDS011;11112;51.270;7.224;2023-07-20T10:10:29;1.60;;;1.33;;
21894;SDS011;11112;51.270;7.224;2023-07-20T10:13:02;1.67;;;1.20;;
21894;SDS011;11112;51.270;7.224;2023-07-20T10:15:32;2.08;;;1.27;;
21894;SDS011;11112;51.270;7.224;2023-07-20T10:18:07;1.83;;;1.30;;
21894;SDS011;11112;51.270;7.224;2023-07-20T10:20:39;2.35;;;0.95;;
21894;SDS011;11112;51.270;7.224;2023-07-20T10:23:07;5.20;;;1.20;;
21894;SDS011;11112;51.270;7.224;2023-07-20T10:25:38;3.15;;;0.98;;
21894;SDS011;11112;51.270;7.224;2023-07-20T10:28:07;1.55;;;0.80;;
21894;SDS011;11112;51.270;7.224;2023-07-20T10:30:37;1.60;;;1.35;;
21894;SDS011;11112;51.270;7.224;2023-07-20T10:33:07;2.50;;;1.27;;
21894;SDS011;11112;51.270;7.224;2023-07-20T10:35:50;1.73;;;0.90;;
21894;SDS011;11112;51.270;7.224;2023-07-20T10:38:18;4.05;;;1.77;;
21894;SDS011;11112;51.270;7.224;2023-07-20T10:40:53;2.70;;;1.70;;
21894;SDS011;11112;51.270;7.224;2023-07-20T10:43:21;2.67;;;2.20;;
21894;SDS011;11112;51.270;7.224;2023-07-20T10:45:49;3.15;;;1.70;;
21894;SDS011;11112;51.270;7.224;2023-07-20T10:48:20;4.75;;;1.80;;
21894;SDS011;11112;51.270;7.224;2023-07-20T10:53:39;2.70;;;1.45;;
21894;SDS011;11112;51.270;7.224;2023-07-20T10:56:07;3.90;;;1.40;;
21894;SDS011;11112;51.270;7.224;2023-07-20T10:58:37;2.22;;;1.50;;
21894;SDS011;11112;51.270;7.224;2023-07-20T11:01:06;1.50;;;1.40;;
21894;SDS011;11112;51.270;7.224;2023-07-20T11:03:36;1.80;;;1.17;;
21894;SDS011;11112;51.270;7.224;2023-07-20T11:09:04;2.67;;;1.40;;
21894;SDS011;11112;51.270;7.224;2023-07-20T11:11:46;2.30;;;1.30;;
21894;SDS011;11112;51.270;7.224;2023-07-20T11:14:20;3.83;;;1.27;;
21894;SDS011;11112;51.270;7.224;2023-07-20T11:16:49;1.98;;;1.40;;
21894;SDS011;11112;51.270;7.224;2023-07-20T11:19:20;2.58;;;1.30;;
21894;SDS011;11112;51.270;7.224;2023-07-20T11:21:50;1.95;;;1.45;;
21894;SDS011;11112;51.270;7.224;2023-07-20T11:24:18;2.22;;;1.80;;
21894;SDS011;11112;51.270;7.224;2023-07-20T11:26:47;3.17;;;1.90;;
21894;SDS011;11112;51.270;7.224;2023-07-20T11:29:17;5.72;;;2.60;;
21894;SDS011;11112;51.270;7.224;2023-07-20T11:31:45;3.13;;;1.73;;
21894;SDS011;11112;51.270;7.224;2023-07-20T11:34:16;3.30;;;1.80;;
21894;SDS011;11112;51.270;7.224;2023-07-20T11:36:47;3.15;;;1.50;;
21894;SDS011;11112;51.270;7.224;2023-07-20T11:39:18;2.65;;;1.65;;
21894;SDS011;11112;51.270;7.224;2023-07-20T11:41:49;2.28;;;1.48;;
21894;SDS011;11112;51.270;7.224;2023-07-20T11:44:18;3.03;;;1.80;;
21894;SDS011;11112;51.270;7.224;2023-07-20T11:46:53;3.53;;;1.70;;
21894;SDS011;11112;51.270;7.224;2023-07-20T11:49:29;4.38;;;1.58;;
21894;SDS011;11112;51.270;7.224;2023-07-20T11:51:57;2.83;;;1.50;;
21894;SDS011;11112;51.270;7.224;2023-07-20T11:54:25;4.32;;;1.50;;
21894;SDS011;11112;51.270;7.224;2023-07-20T11:56:54;2.28;;;1.45;;
21894;SDS011;11112;51.270;7.224;2023-07-20T11:59:22;2.25;;;1.60;;
21894;SDS011;11112;51.270;7.224;2023-07-20T12:01:51;3.63;;;1.48;;
21894;SDS011;11112;51.270;7.224;2023-07-20T12:04:20;3.17;;;1.80;;
21894;SDS011;11112;51.270;7.224;2023-07-20T12:06:54;4.60;;;1.83;;
21894;SDS011;11112;51.270;7.224;2023-07-20T12:09:21;2.30;;;1.73;;
21894;SDS011;11112;51.270;7.224;2023-07-20T12:11:52;3.78;;;1.77;;
21894;SDS011;11112;51.270;7.224;2023-07-20T12:14:20;3.08;;;1.63;;
21894;SDS011;11112;51.270;7.224;2023-07-20T12:16:52;2.03;;;1.40;;
21894;SDS011;11112;51.270;7.224;2023-07-20T12:19:20;4.22;;;1.63;;
21894;SDS011;11112;51.270;7.224;2023-07-20T12:21:56;2.30;;;1.42;;
21894;SDS011;11112;51.270;7.224;2023-07-20T12:24:24;3.10;;;2.00;;
21894;SDS011;11112;51.270;7.224;2023-07-20T12:26:55;3.22;;;2.03;;
21894;SDS011;11112;51.270;7.224;2023-07-20T12:29:24;4.68;;;1.90;;
21894;SDS011;11112;51.270;7.224;2023-07-20T12:31:54;3.05;;;1.67;;
21894;SDS011;11112;51.270;7.224;2023-07-20T12:34:23;2.50;;;1.55;;
21894;SDS011;11112;51.270;7.224;2023-07-20T12:36:51;3.03;;;1.70;;
21894;SDS011;11112;51.270;7.224;2023-07-20T12:39:20;2.15;;;1.67;;
21894;SDS011;11112;51.270;7.224;2023-07-20T12:41:49;4.10;;;1.77;;
21894;SDS011;11112;51.270;7.224;2023-07-20T12:44:17;3.92;;;1.80;;
21894;SDS011;11112;51.270;7.224;2023-07-20T12:46:45;2.63;;;1.38;;
21894;SDS011;11112;51.270;7.224;2023-07-20T12:49:24;1.23;;;0.90;;
21894;SDS011;11112;51.270;7.224;2023-07-20T12:51:54;2.70;;;0.95;;
21894;SDS011;11112;51.270;7.224;2023-07-20T12:54:21;1.50;;;1.00;;
21894;SDS011;11112;51.270;7.224;2023-07-20T12:56:49;2.15;;;1.10;;
21894;SDS011;11112;51.270;7.224;2023-07-20T12:59:16;1.88;;;0.82;;
21894;SDS011;11112;51.270;7.224;2023-07-20T13:01:45;2.15;;;1.50;;
21894;SDS011;11112;51.270;7.224;2023-07-20T13:04:14;2.47;;;1.50;;
21894;SDS011;11112;51.270;7.224;2023-07-20T13:06:43;2.30;;;1.40;;
21894;SDS011;11112;51.270;7.224;2023-07-20T13:09:12;2.53;;;1.42;;
21894;SDS011;11112;51.270;7.224;2023-07-20T13:11:39;2.38;;;1.40;;
21894;SDS011;11112;51.270;7.224;2023-07-20T13:14:09;2.13;;;1.45;;
21894;SDS011;11112;51.270;7.224;2023-07-20T13:16:39;2.00;;;1.40;;
21894;SDS011;11112;51.270;7.224;2023-07-20T13:19:08;2.47;;;1.58;;
21894;SDS011;11112;51.270;7.224;2023-07-20T13:21:35;3.05;;;1.50;;
21894;SDS011;11112;51.270;7.224;2023-07-20T13:24:03;3.15;;;1.27;;
21894;SDS011;11112;51.270;7.224;2023-07-20T13:26:34;3.40;;;1.40;;
21894;SDS011;11112;51.270;7.224;2023-07-20T13:29:02;1.83;;;1.10;;
21894;SDS011;11112;51.270;7.224;2023-07-20T13:31:29;2.33;;;0.90;;
21894;SDS011;11112;51.270;7.224;2023-07-20T13:33:57;2.38;;;0.90;;
21894;SDS011;11112;51.270;7.224;2023-07-20T13:36:25;2.30;;;0.98;;
21894;SDS011;11112;51.270;7.224;2023-07-20T13:38:52;3.08;;;0.80;;
21894;SDS011;11112;51.270;7.224;2023-07-20T13:41:20;2.45;;;0.90;;
21894;SDS011;11112;51.270;7.224;2023-07-20T13:43:49;1.85;;;0.60;;
21894;SDS011;11112;51.270;7.224;2023-07-20T13:46:16;2.92;;;0.90;;
21894;SDS011;11112;51.270;7.224;2023-07-20T13:48:44;1.50;;;0.85;;
21894;SDS011;11112;51.270;7.224;2023-07-20T13:51:11;2.00;;;1.00;;
21894;SDS011;11112;51.270;7.224;2023-07-20T13:53:39;2.75;;;0.90;;
21894;SDS011;11112;51.270;7.224;2023-07-20T13:56:06;2.28;;;0.77;;
21894;SDS011;11112;51.270;7.224;2023-07-20T13:58:34;2.65;;;0.90;;
21894;SDS011;11112;51.270;7.224;2023-07-20T14:01:03;3.25;;;0.75;;
21894;SDS011;11112;51.270;7.224;2023-07-20T14:03:30;3.25;;;1.00;;
21894;SDS011;11112;51.270;7.224;2023-07-20T14:05:58;1.77;;;0.90;;
21894;SDS011;11112;51.270;7.224;2023-07-20T14:08:25;2.92;;;1.00;;
21894;SDS011;11112;51.270;7.224;2023-07-20T14:10:55;2.20;;;1.10;;
21894;SDS011;11112;51.270;7.224;2023-07-20T14:13:23;3.92;;;1.17;;
21894;SDS011;11112;51.270;7.224;2023-07-20T14:15:50;4.70;;;1.20;;
21894;SDS011;11112;51.270;7.224;2023-07-20T14:18:21;3.20;;;1.20;;
21894;SDS011;11112;51.270;7.224;2023-07-20T14:20:48;2.00;;;1.20;;
21894;SDS011;11112;51.270;7.224;2023-07-20T14:23:16;2.38;;;1.10;;
21894;SDS011;11112;51.270;7.224;2023-07-20T14:25:44;2.80;;;1.13;;
21894;SDS011;11112;51.270;7.224;2023-07-20T14:28:11;5.00;;;1.17;;
21894;SDS011;11112;51.270;7.224;2023-07-20T14:30:38;2.10;;;1.15;;
21894;SDS011;11112;51.270;7.224;2023-07-20T14:33:07;1.98;;;1.30;;
21894;SDS011;11112;51.270;7.224;2023-07-20T14:35:36;2.10;;;1.30;;
21894;SDS011;11112;51.270;7.224;2023-07-20T14:38:03;2.33;;;1.23;;
21894;SDS011;11112;51.270;7.224;2023-07-20T14:40:30;3.08;;;1.60;;
21894;SDS011;11112;51.270;7.224;2023-07-20T14:42:57;2.08;;;1.20;;
21894;SDS011;11112;51.270;7.224;2023-07-20T14:45:26;5.97;;;1.30;;
21894;SDS011;11112;51.270;7.224;2023-07-20T14:47:54;2.42;;;1.10;;
21894;SDS011;11112;51.270;7.224;2023-07-20T14:50:22;2.85;;;1.10;;
21894;SDS011;11112;51.270;7.224;2023-07-20T14:52:51;4.45;;;1.40;;
21894;SDS011;11112;51.270;7.224;2023-07-20T14:55:19;2.30;;;1.25;;
21894;SDS011;11112;51.270;7.224;2023-07-20T14:57:47;4.22;;;1.15;;
21894;SDS011;11112;51.270;7.224;2023-07-20T15:00:15;3.15;;;1.30;;
21894;SDS011;11112;51.270;7.224;2023-07-20T15:02:54;2.83;;;1.10;;
21894;SDS011;11112;51.270;7.224;2023-07-20T15:05:21;2.20;;;1.10;;